createdAt,value
2017-07-01T00:01:34.628Z,59.90
2017-07-01T00:04:08.354Z,60.30
2017-07-01T00:06:42.025Z,60.00
2017-07-01T00:09:16.569Z,60.70
2017-07-01T00:11:51.184Z,60.10
2017-07-01T00:14:25.082Z,60.00
2017-07-01T00:16:59.725Z,59.80
2017-07-01T00:19:33.687Z,59.80
2017-07-01T00:22:08.258Z,60.00
2017-07-01T00:24:42.227Z,60.00
2017-07-01T00:27:16.134Z,60.60
2017-07-01T00:29:49.725Z,60.60
2017-07-01T00:32:24.442Z,61.60
2017-07-01T00:34:58.999Z,60.70
2017-07-01T00:37:33.093Z,60.60
2017-07-01T00:40:06.742Z,60.80
2017-07-01T00:42:40.396Z,60.80
2017-07-01T00:45:14.937Z,61.60
2017-07-01T00:47:48.836Z,61.00
2017-07-01T00:50:22.471Z,61.50
2017-07-01T00:52:56.245Z,61.10
2017-07-01T00:55:29.826Z,61.40
2017-07-01T00:58:03.828Z,61.30
2017-07-01T01:00:38.425Z,62.00
2017-07-01T01:03:12.205Z,62.00
2017-07-01T01:05:45.990Z,61.70
2017-07-01T01:08:20.513Z,62.60
2017-07-01T01:10:54.174Z,61.90
2017-07-01T01:13:28.108Z,62.70
2017-07-01T01:16:03.369Z,62.60
2017-07-01T01:18:37.465Z,62.60
2017-07-01T01:21:11.997Z,62.30
2017-07-01T01:23:45.902Z,62.80
2017-07-01T01:26:19.602Z,62.80
2017-07-01T01:28:53.389Z,63.30
2017-07-01T01:31:27.920Z,62.80
2017-07-01T01:34:02.762Z,62.80
2017-07-01T01:36:36.514Z,63.30
2017-07-01T01:39:10.258Z,63.30
2017-07-01T01:41:43.971Z,63.50
2017-07-01T01:44:17.867Z,64.00
2017-07-01T01:46:51.603Z,63.70
2017-07-01T01:49:25.386Z,63.70
2017-07-01T01:51:59.105Z,64.20
2017-07-01T01:54:33.797Z,64.00
2017-07-01T01:57:07.618Z,63.90
2017-07-01T01:59:43.301Z,64.10
2017-07-01T02:02:17.023Z,64.00
2017-07-01T02:04:51.556Z,64.40
2017-07-01T02:07:26.049Z,65.20
2017-07-01T02:10:00.106Z,64.80
2017-07-01T02:12:33.849Z,64.40
2017-07-01T02:15:07.617Z,64.50
2017-07-01T02:17:43.093Z,65.20
2017-07-01T02:20:21.852Z,65.30
2017-07-01T02:22:57.177Z,65.70
2017-07-01T02:25:32.249Z,65.00
2017-07-01T02:28:06.196Z,65.80
2017-07-01T02:30:40.010Z,66.10
2017-07-01T02:33:13.628Z,66.60
2017-07-01T02:35:51.211Z,66.30
2017-07-01T02:38:25.846Z,66.20
2017-07-01T02:41:00.344Z,66.20
2017-07-01T02:43:33.972Z,66.40
2017-07-01T02:46:16.976Z,66.50
2017-07-01T02:49:28.950Z,66.50
2017-07-01T02:52:34.479Z,67.00
2017-07-01T02:55:29.709Z,66.90
2017-07-01T02:58:03.886Z,67.00
2017-07-01T03:00:37.857Z,67.20
2017-07-01T03:03:11.849Z,67.20
2017-07-01T03:05:46.386Z,67.30
2017-07-01T03:08:20.862Z,67.60
2017-07-01T03:10:55.458Z,67.90
2017-07-01T03:13:30.421Z,68.10
2017-07-01T03:16:04.345Z,67.50
2017-07-01T03:18:38.165Z,67.80
2017-07-01T03:21:12.772Z,68.10
2017-07-01T03:23:46.682Z,68.00
2017-07-01T03:26:21.158Z,68.00
2017-07-01T03:28:58.241Z,67.90
2017-07-01T03:31:32.170Z,68.10
2017-07-01T03:34:06.025Z,68.50
2017-07-01T03:36:40.693Z,68.40
2017-07-01T03:39:27.309Z,68.20
2017-07-01T03:42:22.170Z,68.10
2017-07-01T03:45:12.809Z,68.60
2017-07-01T03:48:02.285Z,68.70
2017-07-01T03:50:36.528Z,68.80
2017-07-01T03:53:21.238Z,68.90
2017-07-01T03:55:55.342Z,68.80
2017-07-01T03:58:30.879Z,69.90
2017-07-01T04:01:04.845Z,70.00
2017-07-01T04:03:39.429Z,69.60
2017-07-01T04:06:13.438Z,70.40
2017-07-01T04:08:47.088Z,70.80
2017-07-01T04:11:21.810Z,71.40
2017-07-01T04:13:55.820Z,70.80
2017-07-01T04:16:29.690Z,70.70
2017-07-01T04:19:08.395Z,70.40
2017-07-01T04:21:43.697Z,70.50
2017-07-01T04:24:17.709Z,70.50
2017-07-01T04:26:51.459Z,70.00
2017-07-01T04:29:25.119Z,69.70
2017-07-01T04:31:58.813Z,69.70
2017-07-01T04:34:32.525Z,70.60
2017-07-01T04:37:06.285Z,70.10
2017-07-01T04:39:40.031Z,69.80
2017-07-01T04:42:32.656Z,69.50
2017-07-01T04:45:14.338Z,70.50
2017-07-01T04:48:14.923Z,69.70
2017-07-01T04:51:11.013Z,70.70
2017-07-01T04:53:49.701Z,70.20
2017-07-01T04:56:48.790Z,70.50
2017-07-01T04:59:29.386Z,70.50
2017-07-01T05:02:04.169Z,70.50
2017-07-01T05:04:39.622Z,70.20
2017-07-01T05:10:42.126Z,70.40
2017-07-01T05:13:16.161Z,70.00
2017-07-01T05:16:12.650Z,69.50
2017-07-01T05:18:46.942Z,69.70
2017-07-01T05:21:23.356Z,69.40
2017-07-01T05:23:58.961Z,70.10
2017-07-01T05:26:33.197Z,68.70
2017-07-01T05:29:07.753Z,68.20
2017-07-01T05:31:42.409Z,68.50
2017-07-01T05:34:34.387Z,68.50
2017-07-01T05:37:09.072Z,67.70
2017-07-01T05:39:43.018Z,68.30
2017-07-01T05:42:28.748Z,68.10
2017-07-01T05:45:03.367Z,68.30
2017-07-01T05:47:37.365Z,68.20
2017-07-01T05:50:11.795Z,66.90
2017-07-01T05:52:46.582Z,67.30
2017-07-01T05:55:21.252Z,67.10
2017-07-01T05:57:55.245Z,67.10
2017-07-01T06:00:36.620Z,65.60
2017-07-01T06:03:10.718Z,66.20
2017-07-01T06:05:44.386Z,66.10
2017-07-01T06:08:18.909Z,65.60
2017-07-01T06:11:07.406Z,66.30
2017-07-01T06:13:52.072Z,64.40
2017-07-01T06:16:34.558Z,65.00
2017-07-01T06:19:24.461Z,64.30
2017-07-01T06:21:59.528Z,64.20
2017-07-01T06:24:33.513Z,64.00
2017-07-01T06:27:21.070Z,64.00
2017-07-01T06:30:06.315Z,64.40
2017-07-01T06:32:51.916Z,64.30
2017-07-01T06:35:32.196Z,63.70
2017-07-01T06:38:27.757Z,63.00
2017-07-01T06:41:23.382Z,63.50
2017-07-01T06:44:06.608Z,63.80
2017-07-01T06:46:46.500Z,63.40
2017-07-01T06:49:20.641Z,63.30
2017-07-01T06:52:14.204Z,64.10
2017-07-01T06:54:48.478Z,62.90
2017-07-01T06:57:22.240Z,63.10
2017-07-01T06:59:56.614Z,62.90
2017-07-01T07:02:30.622Z,62.80
2017-07-01T07:05:04.205Z,64.50
2017-07-01T07:07:37.953Z,65.50
2017-07-01T07:10:11.657Z,63.20
2017-07-01T07:12:45.369Z,63.40
2017-07-01T07:15:19.964Z,64.20
2017-07-01T07:17:59.457Z,64.20
2017-07-01T07:20:33.653Z,64.40
2017-07-01T07:23:08.286Z,64.20
2017-07-01T07:25:42.976Z,64.30
2017-07-01T07:28:17.089Z,64.30
2017-07-01T07:30:50.710Z,64.40
2017-07-01T07:33:24.544Z,64.40
2017-07-01T07:35:59.014Z,61.80
2017-07-01T07:38:33.802Z,63.20
2017-07-01T07:41:07.501Z,62.90
2017-07-01T07:43:42.191Z,63.80
2017-07-01T07:46:16.111Z,63.80
2017-07-01T07:48:50.541Z,63.70
2017-07-01T07:51:24.349Z,62.90
2017-07-01T07:53:58.136Z,62.00
2017-07-01T07:56:31.952Z,61.10
2017-07-01T07:59:05.762Z,62.00
2017-07-01T08:01:40.246Z,61.10
2017-07-01T08:04:14.163Z,61.10
2017-07-01T08:06:48.812Z,62.30
2017-07-01T08:09:23.421Z,62.50
2017-07-01T08:11:57.350Z,62.50
2017-07-01T08:14:31.208Z,64.40
2017-07-01T08:17:04.931Z,64.10
2017-07-01T08:19:38.806Z,65.50
2017-07-01T08:22:12.558Z,67.30
2017-07-01T08:24:46.216Z,68.50
2017-07-01T08:27:19.862Z,67.90
2017-07-01T08:29:55.625Z,70.90
2017-07-01T08:32:30.210Z,71.00
2017-07-01T08:35:04.205Z,70.00
2017-07-01T08:37:38.742Z,72.10
2017-07-01T08:40:12.732Z,72.10
2017-07-01T08:42:46.434Z,74.50
2017-07-01T08:45:21.200Z,74.10
2017-07-01T08:47:55.118Z,74.00
2017-07-01T08:50:28.881Z,76.70
2017-07-01T08:53:02.557Z,73.20
2017-07-01T08:55:36.234Z,73.70
2017-07-01T08:58:09.948Z,76.20
2017-07-01T09:00:45.673Z,74.70
2017-07-01T09:03:19.442Z,74.40
2017-07-01T09:05:53.921Z,71.90
2017-07-01T09:08:27.843Z,71.80
2017-07-01T09:11:02.429Z,73.00
2017-07-01T09:13:36.374Z,72.80
2017-07-01T09:16:10.997Z,72.50
2017-07-01T09:18:44.905Z,71.80
2017-07-01T09:21:19.530Z,69.80
2017-07-01T09:23:53.563Z,69.50
2017-07-01T09:26:28.141Z,68.70
2017-07-01T09:29:01.946Z,68.40
2017-07-01T09:31:36.497Z,69.00
2017-07-01T09:34:11.289Z,69.20
2017-07-01T09:36:45.471Z,69.20
2017-07-01T09:39:19.129Z,69.00
2017-07-01T09:41:52.889Z,67.70
2017-07-01T09:44:27.325Z,68.60
2017-07-01T09:47:01.220Z,68.70
2017-07-01T09:49:35.664Z,71.80
2017-07-01T09:52:10.321Z,68.00
2017-07-01T09:54:44.809Z,68.50
2017-07-01T09:57:19.686Z,69.30
2017-07-01T09:59:55.012Z,68.50
2017-07-01T10:02:30.164Z,70.30
2017-07-01T10:05:04.092Z,70.10
2017-07-01T10:07:39.428Z,66.00
2017-07-01T10:10:14.088Z,63.60
2017-07-01T10:12:48.010Z,62.80
2017-07-01T10:15:22.521Z,62.70
2017-07-01T10:17:56.512Z,62.80
2017-07-01T10:20:30.967Z,63.70
2017-07-01T10:23:05.013Z,63.70
2017-07-01T10:25:38.749Z,63.90
2017-07-01T10:28:12.446Z,62.30
2017-07-01T10:30:46.044Z,60.80
2017-07-01T10:33:20.760Z,62.40
2017-07-01T10:35:55.313Z,62.40
2017-07-01T10:38:29.299Z,62.10
2017-07-01T10:41:03.655Z,60.60
2017-07-01T10:43:37.648Z,60.40
2017-07-01T10:46:12.086Z,62.00
2017-07-01T10:48:45.877Z,60.90
2017-07-01T10:51:20.424Z,60.30
2017-07-01T10:53:54.388Z,60.40
2017-07-01T10:56:28.750Z,60.60
2017-07-01T10:59:02.713Z,60.50
2017-07-01T11:01:37.309Z,60.40
2017-07-01T11:04:11.139Z,60.50
2017-07-01T11:06:44.792Z,60.40
2017-07-01T11:09:18.490Z,58.80
2017-07-01T11:11:52.820Z,58.80
2017-07-01T11:14:27.005Z,58.70
2017-07-01T11:17:01.636Z,57.90
2017-07-01T11:19:36.119Z,57.90
2017-07-01T11:22:10.043Z,57.90
2017-07-01T11:24:43.782Z,58.50
2017-07-01T11:27:17.408Z,58.10
2017-07-01T11:29:53.973Z,57.80
2017-07-01T11:32:27.693Z,57.70
2017-07-01T11:35:02.434Z,58.30
2017-07-01T11:37:36.261Z,58.30
2017-07-01T11:40:10.006Z,58.20
2017-07-01T11:42:45.230Z,58.70
2017-07-01T11:45:19.223Z,58.00
2017-07-01T11:47:52.999Z,58.30
2017-07-01T11:50:26.810Z,58.20
2017-07-01T11:53:00.602Z,57.70
2017-07-01T11:55:35.126Z,57.60
2017-07-01T11:58:09.105Z,57.80
2017-07-01T12:00:44.741Z,57.70
2017-07-01T12:03:18.493Z,57.40
2017-07-01T12:05:52.312Z,58.40
2017-07-01T12:08:26.784Z,57.80
2017-07-01T12:11:01.651Z,57.90
2017-07-01T12:13:35.610Z,57.90
2017-07-01T12:16:10.138Z,59.20
2017-07-01T12:18:43.886Z,58.40
2017-07-01T12:21:18.612Z,58.50
2017-07-01T12:23:52.313Z,58.40
2017-07-01T12:26:26.060Z,57.90
2017-07-01T12:28:59.725Z,58.40
2017-07-01T12:31:33.598Z,58.60
2017-07-01T12:34:08.150Z,59.60
2017-07-01T12:36:42.682Z,58.30
2017-07-01T12:39:16.690Z,58.30
2017-07-01T12:41:50.496Z,58.80
2017-07-01T12:44:24.248Z,58.20
2017-07-01T12:46:58.134Z,58.20
2017-07-01T12:49:32.625Z,58.40
2017-07-01T12:52:06.538Z,57.80
2017-07-01T12:54:40.925Z,58.60
2017-07-01T12:57:15.689Z,58.20
2017-07-01T12:59:50.277Z,58.30
2017-07-01T13:02:25.233Z,58.50
2017-07-01T13:04:58.994Z,58.30
2017-07-01T13:07:32.847Z,58.80
2017-07-01T13:10:06.533Z,58.50
2017-07-01T13:12:41.911Z,59.60
2017-07-01T13:15:15.801Z,59.60
2017-07-01T13:17:49.638Z,59.30
2017-07-01T13:20:23.240Z,59.90
2017-07-01T13:22:57.821Z,59.60
2017-07-01T13:25:31.637Z,59.60
2017-07-01T13:28:05.440Z,59.40
2017-07-01T13:30:39.981Z,59.10
2017-07-01T13:33:13.700Z,59.50
2017-07-01T13:35:47.394Z,59.90
2017-07-01T13:38:21.252Z,59.00
2017-07-01T13:40:54.893Z,60.80
2017-07-01T13:43:29.497Z,62.80
2017-07-01T13:46:03.341Z,62.40
2017-07-01T13:48:37.932Z,61.50
2017-07-01T13:51:11.854Z,61.60
2017-07-01T13:53:45.645Z,68.70
2017-07-01T13:56:20.845Z,71.70
2017-07-01T13:58:55.733Z,71.30
2017-07-01T14:01:29.464Z,71.10
2017-07-01T14:04:03.215Z,72.60
2017-07-01T14:06:38.541Z,75.10
2017-07-01T14:09:12.269Z,75.00
2017-07-01T14:11:45.955Z,76.50
2017-07-01T14:14:19.744Z,72.20
2017-07-01T14:16:53.386Z,72.90
2017-07-01T14:19:28.736Z,71.20
2017-07-01T14:22:02.542Z,71.10
2017-07-01T14:24:37.162Z,72.60
2017-07-01T14:27:10.992Z,72.00
2017-07-01T14:29:45.690Z,74.10
2017-07-01T14:32:19.440Z,73.30
2017-07-01T14:34:53.124Z,74.10
2017-07-01T14:37:26.814Z,74.50
2017-07-01T14:40:01.542Z,78.30
2017-07-01T14:42:35.346Z,78.20
2017-07-01T14:45:09.052Z,74.80
2017-07-01T14:47:43.655Z,76.00
2017-07-01T14:50:17.516Z,77.50
2017-07-01T14:52:52.118Z,80.30
2017-07-01T14:55:27.479Z,77.70
2017-07-01T14:58:02.135Z,80.20
2017-07-01T15:00:36.998Z,80.50
2017-07-01T15:03:10.661Z,81.20
2017-07-01T15:05:44.337Z,82.20
2017-07-01T15:08:18.101Z,82.20
2017-07-01T15:10:52.669Z,82.70
2017-07-01T15:16:08.033Z,81.60
2017-07-01T15:18:42.733Z,84.70
2017-07-01T15:21:17.549Z,83.70
2017-07-01T15:23:51.297Z,83.90
2017-07-01T15:26:25.897Z,82.70
2017-07-01T15:28:59.833Z,82.80
2017-07-01T15:31:35.534Z,84.70
2017-07-01T15:34:09.234Z,84.10
2017-07-01T15:36:43.030Z,84.20
2017-07-01T15:39:16.687Z,83.30
2017-07-01T15:41:51.196Z,84.30
2017-07-01T15:44:25.118Z,84.10
2017-07-01T15:46:59.152Z,83.80
2017-07-01T15:49:32.801Z,85.50
2017-07-01T15:52:06.602Z,84.00
2017-07-01T15:54:41.127Z,83.30
2017-07-01T15:57:15.130Z,83.20
2017-07-01T15:59:48.839Z,84.00
2017-07-01T16:02:22.611Z,84.40
2017-07-01T16:04:56.298Z,84.50
2017-07-01T16:07:30.169Z,85.60
2017-07-01T16:10:03.849Z,85.70
2017-07-01T16:12:37.498Z,84.80
2017-07-01T16:15:11.972Z,85.40
2017-07-01T16:17:46.951Z,86.70
2017-07-01T16:20:21.634Z,86.10
2017-07-01T16:22:55.792Z,86.00
2017-07-01T16:25:29.602Z,85.10
2017-07-01T16:28:04.136Z,85.00
2017-07-01T16:30:38.070Z,85.00
2017-07-01T16:33:11.879Z,85.30
2017-07-01T16:35:45.461Z,84.60
2017-07-01T16:38:20.089Z,86.50
2017-07-01T16:40:54.761Z,85.00
2017-07-01T16:43:29.500Z,84.80
2017-07-01T16:46:03.416Z,84.80
2017-07-01T16:48:38.034Z,85.60
2017-07-01T16:51:11.784Z,84.20
2017-07-01T16:53:46.399Z,86.60
2017-07-01T16:56:20.219Z,86.40
2017-07-01T16:58:54.177Z,86.70
2017-07-01T17:01:28.707Z,87.40
2017-07-01T17:04:02.492Z,86.50
2017-07-01T17:06:36.230Z,86.20
2017-07-01T17:09:10.035Z,87.60
2017-07-01T17:11:43.805Z,87.40
2017-07-01T17:14:18.360Z,88.00
2017-07-01T17:16:52.216Z,87.00
2017-07-01T17:19:25.961Z,86.70
2017-07-01T17:21:59.696Z,86.50
2017-07-01T17:24:34.204Z,89.00
2017-07-01T17:27:08.895Z,85.70
2017-07-01T17:29:44.737Z,87.80
2017-07-01T17:32:18.588Z,87.10
2017-07-01T17:34:53.185Z,87.00
2017-07-01T17:37:26.810Z,87.80
2017-07-01T17:40:00.557Z,89.00
2017-07-01T17:42:34.248Z,87.30
2017-07-01T17:45:07.893Z,87.70
2017-07-01T17:47:41.526Z,87.50
2017-07-01T17:50:15.301Z,86.20
2017-07-01T17:52:48.929Z,86.90
2017-07-01T17:55:22.815Z,87.70
2017-07-01T17:57:57.365Z,87.90
2017-07-01T18:00:32.065Z,87.50
2017-07-01T18:03:05.802Z,89.40
2017-07-01T18:05:39.673Z,88.40
2017-07-01T18:08:13.405Z,89.50
2017-07-01T18:10:47.837Z,87.10
2017-07-01T18:13:21.660Z,87.10
2017-07-01T18:15:56.280Z,87.80
2017-07-01T18:18:30.021Z,87.70
2017-07-01T18:21:04.664Z,89.40
2017-07-01T18:23:38.432Z,89.30
2017-07-01T18:26:13.020Z,89.20
2017-07-01T18:28:46.985Z,89.20
2017-07-01T18:31:20.842Z,89.60
2017-07-01T18:33:54.724Z,88.30
2017-07-01T18:36:29.166Z,89.20
2017-07-01T18:39:03.077Z,88.20
2017-07-01T18:41:37.585Z,89.00
2017-07-01T18:44:11.612Z,89.00
2017-07-01T18:46:45.353Z,89.40
2017-07-01T18:49:19.802Z,88.30
2017-07-01T18:51:54.673Z,89.10
2017-07-01T18:54:28.593Z,88.60
2017-07-01T18:57:02.258Z,88.10
2017-07-01T18:59:35.877Z,89.00
2017-07-01T19:02:11.588Z,90.00
2017-07-01T19:04:45.320Z,89.00
2017-07-01T19:07:19.850Z,90.70
2017-07-01T19:09:53.959Z,89.70
2017-07-01T19:12:27.725Z,90.70
2017-07-01T19:15:01.438Z,90.90
2017-07-01T19:17:35.232Z,90.90
2017-07-01T19:20:09.744Z,90.60
2017-07-01T19:22:43.516Z,91.50
2017-07-01T19:25:17.885Z,90.80
2017-07-01T19:27:51.878Z,90.90
2017-07-01T19:30:26.327Z,90.80
2017-07-01T19:33:02.101Z,90.90
2017-07-01T19:35:36.582Z,90.70
2017-07-01T19:38:11.359Z,89.80
2017-07-01T19:40:45.374Z,89.90
2017-07-01T19:43:18.986Z,92.10
2017-07-01T19:45:54.269Z,91.00
2017-07-01T19:48:28.334Z,91.00
2017-07-01T19:51:02.806Z,91.30
2017-07-01T19:53:36.817Z,91.30
2017-07-01T19:56:11.545Z,91.80
2017-07-01T19:58:46.161Z,92.00
2017-07-01T20:01:20.594Z,91.70
2017-07-01T20:03:54.685Z,91.70
2017-07-01T20:06:28.328Z,92.20
2017-07-01T20:09:02.941Z,90.70
2017-07-01T20:11:37.351Z,91.50
2017-07-01T20:14:11.330Z,91.40
2017-07-01T20:16:45.925Z,91.30
2017-07-01T20:19:19.765Z,91.60
2017-07-01T20:21:54.213Z,91.70
2017-07-01T20:24:28.217Z,91.60
2017-07-01T20:27:01.805Z,92.00
2017-07-01T20:29:36.378Z,91.70
2017-07-01T20:32:10.089Z,91.10
2017-07-01T20:34:44.831Z,92.80
2017-07-01T20:37:19.410Z,91.40
2017-07-01T20:39:54.154Z,91.40
2017-07-01T20:42:28.033Z,91.30
2017-07-01T20:45:01.886Z,93.10
2017-07-01T20:47:36.278Z,91.80
2017-07-01T20:50:10.923Z,92.70
2017-07-01T20:52:44.737Z,92.20
2017-07-01T20:55:18.720Z,91.80
2017-07-01T20:57:52.374Z,91.40
2017-07-01T21:00:26.994Z,91.40
2017-07-01T21:03:01.577Z,91.70
2017-07-01T21:05:35.294Z,92.50
2017-07-01T21:08:08.936Z,91.80
2017-07-01T21:10:42.720Z,93.40
2017-07-01T21:13:16.450Z,92.80
2017-07-01T21:15:51.065Z,92.00
2017-07-01T21:18:24.979Z,92.00
2017-07-01T21:20:58.689Z,92.20
2017-07-01T21:23:32.286Z,91.50
2017-07-01T21:26:06.898Z,92.60
2017-07-01T21:28:41.781Z,93.00
2017-07-01T21:31:16.451Z,93.80
2017-07-01T21:33:50.269Z,93.10
2017-07-01T21:36:24.058Z,93.30
2017-07-01T21:38:58.585Z,94.10
2017-07-01T21:41:32.258Z,94.20
2017-07-01T21:44:06.833Z,94.40
2017-07-01T21:46:40.646Z,94.60
2017-07-01T21:49:14.313Z,94.30
2017-07-01T21:51:47.971Z,94.50
2017-07-01T21:54:22.394Z,94.20
2017-07-01T21:56:56.442Z,94.10
2017-07-01T21:59:30.264Z,93.50
2017-07-01T22:02:03.974Z,94.20
2017-07-01T22:04:37.665Z,94.40
2017-07-01T22:07:12.065Z,94.90
2017-07-01T22:09:46.752Z,96.20
2017-07-01T22:12:21.514Z,95.00
2017-07-01T22:14:55.374Z,95.00
2017-07-01T22:17:30.088Z,94.20
2017-07-01T22:20:04.090Z,94.20
2017-07-01T22:22:37.909Z,94.40
2017-07-01T22:25:11.688Z,95.20
2017-07-01T22:27:45.569Z,96.30
2017-07-01T22:30:19.209Z,95.10
2017-07-01T22:32:52.881Z,94.70
2017-07-01T22:35:26.511Z,95.90
2017-07-01T22:38:01.035Z,96.10
2017-07-01T22:40:34.990Z,96.00
2017-07-01T22:43:09.640Z,97.10
2017-07-01T22:45:44.362Z,96.20
2017-07-01T22:48:18.329Z,96.10
2017-07-01T22:50:52.688Z,96.40
2017-07-01T22:53:26.529Z,96.20
2017-07-01T22:56:01.053Z,96.60
2017-07-01T22:58:35.657Z,95.50
2017-07-01T23:01:09.609Z,95.40
2017-07-01T23:03:45.114Z,96.20
2017-07-01T23:06:18.809Z,96.00
2017-07-01T23:08:53.469Z,96.10
2017-07-01T23:11:27.418Z,95.90
2017-07-01T23:14:01.900Z,94.90
2017-07-01T23:16:35.553Z,94.90
2017-07-01T23:19:09.410Z,94.90
2017-07-01T23:21:43.878Z,94.20
2017-07-01T23:24:17.823Z,94.20
2017-07-01T23:26:51.737Z,94.60
2017-07-01T23:29:27.439Z,94.40
2017-07-01T23:32:01.182Z,94.40
2017-07-01T23:34:35.813Z,95.10
2017-07-01T23:37:09.800Z,95.20
2017-07-01T23:39:43.682Z,95.40
2017-07-01T23:42:17.337Z,95.40
2017-07-01T23:44:51.201Z,95.20
2017-07-01T23:47:24.837Z,94.60
2017-07-01T23:49:59.457Z,96.60
2017-07-01T23:52:33.468Z,96.30
2017-07-01T23:55:07.334Z,96.10
2017-07-01T23:57:40.934Z,96.40
